Time;durP1;ratioP1;P1;durP2;ratioP2;P2;SDS_P1;SDS_P2;PMS_P1;PMS_P2;Temp;Humidity;BMP_temperature;BMP_pressure;BME280_temperature;BME280_humidity;BME280_pressure;Samples;Min_cycle;Max_cycle;Signal;HPM_P1;HPM_P2
2023/07/29 00:00:40;;;;;;;1.40;1.25;;;21.10;99.90;;;;;;5013900;28;20186;-70
2023/07/29 00:03:08;;;;;;;1.45;1.33;;;21.10;99.90;;;;;;5014442;28;20244;-71
2023/07/29 00:05:34;;;;;;;1.52;1.42;;;21.10;99.90;;;;;;5014178;28;20230;-70
2023/07/29 00:08:01;;;;;;;1.83;1.40;;;21.10;99.90;;;;;;5014358;28;20197;-71
2023/07/29 00:10:31;;;;;;;3.28;1.48;;;21.10;99.90;;;;;;5014204;28;20452;-69
2023/07/29 00:12:56;;;;;;;1.50;1.40;;;21.10;99.90;;;;;;5014173;28;20232;-70
2023/07/29 00:15:22;;;;;;;1.55;1.38;;;21.20;99.90;;;;;;5013826;28;20190;-70
2023/07/29 00:17:47;;;;;;;1.45;1.27;;;21.20;99.90;;;;;;5031182;28;20175;-68
2023/07/29 00:20:15;;;;;;;1.40;1.30;;;21.20;99.90;;;;;;5018211;28;20201;-70
2023/07/29 00:22:41;;;;;;;1.35;1.10;;;21.20;99.90;;;;;;5018301;28;20170;-70
2023/07/29 00:25:07;;;;;;;1.30;1.20;;;21.20;99.90;;;;;;5018109;28;20209;-71
2023/07/29 00:27:33;;;;;;;1.35;1.25;;;21.20;99.90;;;;;;5018040;28;20205;-70
2023/07/29 00:30:00;;;;;;;1.23;1.13;;;21.30;99.90;;;;;;5017975;28;20179;-70
2023/07/29 00:32:30;;;;;;;1.20;1.10;;;21.30;99.90;;;;;;5017875;28;20237;-71
2023/07/29 00:35:00;;;;;;;1.42;1.20;;;21.30;99.90;;;;;;5018080;28;20285;-71
2023/07/29 00:37:29;;;;;;;1.58;1.08;;;21.30;99.90;;;;;;5018024;28;20171;-70
2023/07/29 00:39:55;;;;;;;1.60;1.02;;;21.30;99.90;;;;;;5017926;28;20206;-71
2023/07/29 00:42:24;;;;;;;1.10;1.00;;;21.30;99.90;;;;;;5017658;28;20234;-69
2023/07/29 00:44:52;;;;;;;1.50;1.10;;;21.30;99.90;;;;;;5017867;28;20170;-70
2023/07/29 00:47:18;;;;;;;1.10;0.90;;;21.30;99.90;;;;;;5016814;28;20206;-70
2023/07/29 00:49:44;;;;;;;1.10;1.00;;;21.30;99.90;;;;;;5033925;23;20251;-67
2023/07/29 00:52:12;;;;;;;1.33;1.23;;;21.30;99.90;;;;;;4998021;28;20211;-67
2023/07/29 00:54:42;;;;;;;1.27;1.00;;;21.30;99.90;;;;;;4998223;28;20175;-67
2023/07/29 00:57:13;;;;;;;0.93;0.90;;;21.30;99.90;;;;;;4997947;28;20290;-68
2023/07/29 00:59:42;;;;;;;1.20;1.10;;;21.30;99.90;;;;;;4998152;28;20178;-67
2023/07/29 01:02:08;;;;;;;3.17;1.10;;;21.30;99.90;;;;;;4997950;28;20203;-67
2023/07/29 01:04:34;;;;;;;1.35;1.20;;;21.30;99.90;;;;;;4998088;28;20235;-67
2023/07/29 01:07:14;;;;;;;1.23;1.13;;;21.30;99.90;;;;;;4996869;28;20315;-66
2023/07/29 01:09:58;;;;;;;1.20;1.10;;;21.30;99.90;;;;;;4997784;28;20185;-67
2023/07/29 01:12:27;;;;;;;2.17;1.20;;;21.30;99.90;;;;;;4997148;28;20186;-68
2023/07/29 01:15:16;;;;;;;3.42;1.10;;;21.30;99.90;;;;;;4997731;28;20191;-67
2023/07/29 01:18:07;;;;;;;1.20;1.00;;;21.30;99.90;;;;;;4997620;28;20211;-67
2023/07/29 01:20:37;;;;;;;1.27;1.08;;;21.30;99.90;;;;;;4997537;28;20203;-67
2023/07/29 01:23:05;;;;;;;1.10;1.00;;;21.20;99.90;;;;;;4997199;28;20269;-66
2023/07/29 01:25:30;;;;;;;1.48;1.00;;;21.20;99.90;;;;;;4997440;28;20187;-67
2023/07/29 01:27:58;;;;;;;1.30;1.10;;;21.30;99.90;;;;;;4997393;28;20175;-67
2023/07/29 01:30:31;;;;;;;1.02;0.98;;;21.30;99.90;;;;;;4997076;28;20176;-67
2023/07/29 01:33:02;;;;;;;1.55;1.00;;;21.30;99.90;;;;;;4997407;28;20171;-67
2023/07/29 01:35:38;;;;;;;2.25;1.00;;;21.30;99.90;;;;;;4997324;28;20191;-67
2023/07/29 01:38:31;;;;;;;1.10;1.00;;;21.30;99.90;;;;;;4994381;28;20186;-67
2023/07/29 01:41:01;;;;;;;0.95;0.90;;;21.30;99.90;;;;;;4977877;28;20440;-65
2023/07/29 01:43:30;;;;;;;3.70;1.20;;;21.30;99.90;;;;;;4977772;28;20188;-67
2023/07/29 01:45:57;;;;;;;1.10;0.98;;;21.30;99.90;;;;;;4977650;28;20207;-67
2023/07/29 01:48:22;;;;;;;1.50;1.15;;;21.30;99.90;;;;;;4977583;28;20218;-66
2023/07/29 01:50:50;;;;;;;1.88;1.10;;;21.30;99.90;;;;;;4977692;28;20179;-67
2023/07/29 01:53:16;;;;;;;1.17;1.08;;;21.30;99.90;;;;;;4977380;28;20243;-67
2023/07/29 01:55:44;;;;;;;2.33;1.10;;;21.30;99.90;;;;;;4984183;28;20214;-66
2023/07/29 01:58:10;;;;;;;3.67;1.00;;;21.30;99.90;;;;;;4996800;28;20179;-67
2023/07/29 02:00:35;;;;;;;1.45;1.15;;;21.30;99.90;;;;;;4996829;28;20218;-67
2023/07/29 02:03:01;;;;;;;1.10;1.00;;;21.30;99.90;;;;;;4996683;28;20207;-67
2023/07/29 02:05:29;;;;;;;0.93;0.90;;;21.30;99.90;;;;;;4996626;28;20211;-67
2023/07/29 02:07:55;;;;;;;1.20;1.00;;;21.30;99.90;;;;;;4996697;28;20180;-68
2023/07/29 02:10:20;;;;;;;1.55;0.93;;;21.30;99.90;;;;;;5014822;28;20195;-67
2023/07/29 02:12:46;;;;;;;0.98;0.90;;;21.20;99.90;;;;;;4996202;28;20176;-67
2023/07/29 02:15:14;;;;;;;1.92;1.15;;;21.20;99.90;;;;;;4993315;28;20203;-66
2023/07/29 02:17:44;;;;;;;1.85;0.85;;;21.20;99.90;;;;;;4993340;28;20184;-68
2023/07/29 02:20:10;;;;;;;1.25;0.88;;;21.20;99.90;;;;;;4993057;28;20172;-67
2023/07/29 02:22:36;;;;;;;1.00;0.90;;;21.20;99.90;;;;;;4993254;28;20180;-66
2023/07/29 02:25:02;;;;;;;2.17;0.95;;;21.20;99.90;;;;;;4993074;28;20183;-66
2023/07/29 02:27:28;;;;;;;1.67;0.95;;;21.20;99.90;;;;;;4993817;28;20222;-66
2023/07/29 02:29:56;;;;;;;1.60;0.80;;;21.30;99.90;;;;;;4996496;28;20274;-67
2023/07/29 02:32:22;;;;;;;2.15;1.00;;;21.30;99.90;;;;;;4996184;28;20196;-67
2023/07/29 02:34:48;;;;;;;1.00;0.90;;;21.30;99.90;;;;;;4996277;28;20183;-67
2023/07/29 02:37:14;;;;;;;0.93;0.80;;;21.30;99.90;;;;;;4996196;28;20222;-67
2023/07/29 02:39:40;;;;;;;1.10;0.90;;;21.30;99.90;;;;;;4996084;28;20175;-67
2023/07/29 02:42:05;;;;;;;1.10;0.90;;;21.30;99.90;;;;;;4997824;28;20261;-67
2023/07/29 02:44:31;;;;;;;1.23;0.93;;;21.30;99.90;;;;;;5015672;28;20194;-66
2023/07/29 02:46:57;;;;;;;1.10;1.00;;;21.30;99.90;;;;;;5001063;28;20203;-67
2023/07/29 02:49:23;;;;;;;2.35;1.00;;;21.30;99.90;;;;;;4995746;28;20187;-67
2023/07/29 02:51:51;;;;;;;1.00;0.90;;;21.40;99.90;;;;;;4995808;28;20171;-67
2023/07/29 02:54:17;;;;;;;1.10;1.00;;;21.40;99.90;;;;;;4995814;28;20176;-67
2023/07/29 02:56:47;;;;;;;3.05;0.98;;;21.40;99.90;;;;;;4995782;28;20179;-67
2023/07/29 02:59:12;;;;;;;1.48;0.75;;;21.40;99.90;;;;;;4995734;28;20277;-66
2023/07/29 03:01:38;;;;;;;1.55;1.10;;;21.40;99.90;;;;;;4995517;28;20183;-67
2023/07/29 03:04:04;;;;;;;0.90;0.75;;;21.40;99.90;;;;;;5003299;28;20281;-66
2023/07/29 03:06:29;;;;;;;2.58;0.90;;;21.40;99.90;;;;;;4997798;28;20238;-67
2023/07/29 03:08:55;;;;;;;0.80;0.70;;;21.30;99.90;;;;;;4995577;28;20218;-68
2023/07/29 03:11:23;;;;;;;0.85;0.70;;;21.30;99.90;;;;;;4995348;28;20199;-68
2023/07/29 03:13:49;;;;;;;0.90;0.80;;;21.20;99.90;;;;;;4995460;28;20292;-68
2023/07/29 03:16:18;;;;;;;0.90;0.80;;;21.20;99.90;;;;;;4995691;28;20269;-67
2023/07/29 03:18:44;;;;;;;0.60;0.60;;;21.10;99.90;;;;;;4995178;28;20353;-66
2023/07/29 03:21:13;;;;;;;1.15;0.60;;;21.10;99.90;;;;;;4995218;28;20179;-67
2023/07/29 03:23:41;;;;;;;0.60;0.60;;;21.00;99.90;;;;;;4995067;28;20179;-67
2023/07/29 03:26:12;;;;;;;1.15;0.80;;;20.90;99.90;;;;;;4995363;28;20210;-67
2023/07/29 03:28:42;;;;;;;1.00;0.68;;;20.80;99.90;;;;;;4995352;28;20174;-67
2023/07/29 03:31:13;;;;;;;0.90;0.63;;;20.70;99.90;;;;;;4995484;28;20183;-67
2023/07/29 03:33:39;;;;;;;1.10;0.90;;;20.70;99.90;;;;;;4995198;28;20156;-66
2023/07/29 03:36:07;;;;;;;0.80;0.70;;;20.60;99.90;;;;;;4995625;28;20240;-67
2023/07/29 03:38:35;;;;;;;2.33;1.10;;;20.60;99.90;;;;;;4994663;28;20190;-67
2023/07/29 03:41:05;;;;;;;1.02;0.85;;;20.50;99.90;;;;;;4995056;28;20215;-67
2023/07/29 03:43:30;;;;;;;2.03;1.02;;;20.50;99.90;;;;;;4995194;28;20411;-67
2023/07/29 03:45:56;;;;;;;1.27;0.90;;;20.50;99.90;;;;;;4994617;28;20299;-67
2023/07/29 03:48:24;;;;;;;0.98;0.88;;;20.40;99.90;;;;;;4994665;28;20191;-66
2023/07/29 03:50:50;;;;;;;1.50;0.90;;;20.40;99.90;;;;;;4994721;28;20191;-67
2023/07/29 03:53:16;;;;;;;1.17;0.88;;;20.30;99.90;;;;;;4994536;28;20184;-67
2023/07/29 03:55:42;;;;;;;1.92;0.85;;;20.30;99.90;;;;;;4994879;28;20191;-67
2023/07/29 03:58:08;;;;;;;1.67;0.93;;;20.30;99.90;;;;;;4995012;28;20266;-67
2023/07/29 04:00:38;;;;;;;1.85;0.60;;;20.20;99.90;;;;;;4994596;28;20175;-67
2023/07/29 04:03:04;;;;;;;0.93;0.70;;;20.20;99.90;;;;;;4991586;28;20262;-67
2023/07/29 04:05:29;;;;;;;1.23;0.80;;;20.20;99.90;;;;;;4991530;28;20172;-67
2023/07/29 04:07:55;;;;;;;2.25;0.90;;;20.20;99.90;;;;;;4979097;28;20207;-66
2023/07/29 04:10:21;;;;;;;0.90;0.80;;;20.20;99.90;;;;;;4991568;28;20179;-66
2023/07/29 04:12:46;;;;;;;1.88;0.70;;;20.20;99.90;;;;;;4991671;28;20168;-65
2023/07/29 04:15:14;;;;;;;1.10;0.65;;;20.20;99.90;;;;;;4991144;28;20172;-66
2023/07/29 04:17:42;;;;;;;1.15;0.90;;;20.20;99.90;;;;;;4991424;28;20238;-66
2023/07/29 04:20:09;;;;;;;1.25;0.93;;;20.20;99.90;;;;;;4991318;28;20176;-68
2023/07/29 04:22:36;;;;;;;1.30;0.90;;;20.20;99.90;;;;;;4995343;28;20414;-66
2023/07/29 04:25:04;;;;;;;1.15;1.02;;;20.20;99.90;;;;;;4995066;28;20242;-66
2023/07/29 04:27:30;;;;;;;1.38;1.00;;;20.20;99.90;;;;;;4995199;28;20241;-66
2023/07/29 04:29:55;;;;;;;1.20;0.90;;;20.20;99.90;;;;;;4994468;28;20201;-66
2023/07/29 04:32:23;;;;;;;1.17;0.90;;;20.20;99.90;;;;;;4994563;28;20627;-66
2023/07/29 04:34:49;;;;;;;1.00;0.90;;;20.20;99.90;;;;;;4994799;28;20164;-66
2023/07/29 04:37:16;;;;;;;1.52;0.80;;;20.20;99.90;;;;;;4994420;28;20178;-66
2023/07/29 04:39:42;;;;;;;1.23;0.80;;;20.20;99.90;;;;;;4993891;28;20176;-66
2023/07/29 04:42:10;;;;;;;1.23;0.80;;;20.20;99.90;;;;;;4994524;28;20234;-66
2023/07/29 04:44:35;;;;;;;4.22;3.42;;;20.20;99.90;;;;;;4994519;28;20270;-67
2023/07/29 04:47:01;;;;;;;6.50;4.65;;;20.30;99.90;;;;;;4994163;28;20286;-66
2023/07/29 04:49:26;;;;;;;3.10;2.38;;;20.30;99.90;;;;;;4993280;28;20217;-66
2023/07/29 04:51:52;;;;;;;2.08;1.88;;;20.30;99.90;;;;;;4978248;28;20176;-66
2023/07/29 04:54:20;;;;;;;1.67;1.45;;;20.30;99.90;;;;;;4974366;28;20199;-67
2023/07/29 04:56:46;;;;;;;1.85;1.58;;;20.30;99.90;;;;;;4975072;28;20271;-66
2023/07/29 04:59:14;;;;;;;1.20;1.10;;;20.30;99.90;;;;;;4974959;28;20296;-66
2023/07/29 05:01:40;;;;;;;2.75;1.00;;;20.30;99.90;;;;;;4975044;28;20227;-66
2023/07/29 05:04:11;;;;;;;1.35;0.90;;;20.40;99.90;;;;;;4979005;28;20203;-66
2023/07/29 05:06:39;;;;;;;1.00;0.82;;;20.40;99.90;;;;;;4998088;28;20199;-66
2023/07/29 05:09:17;;;;;;;2.20;1.00;;;20.40;99.90;;;;;;4997524;28;20175;-65
2023/07/29 05:11:47;;;;;;;1.70;1.30;;;20.40;99.90;;;;;;4997869;28;20182;-66
2023/07/29 05:14:19;;;;;;;1.40;0.80;;;20.40;99.90;;;;;;4997628;28;20167;-65
2023/07/29 05:16:45;;;;;;;1.10;0.98;;;20.40;99.90;;;;;;4997532;28;20182;-66
2023/07/29 05:19:12;;;;;;;1.98;1.10;;;20.40;99.90;;;;;;4997301;28;20175;-66
2023/07/29 05:21:39;;;;;;;2.00;1.02;;;20.40;99.90;;;;;;4997044;28;20285;-65
2023/07/29 05:24:07;;;;;;;2.25;1.00;;;20.40;99.90;;;;;;4998203;28;20175;-66
2023/07/29 05:26:32;;;;;;;1.45;1.00;;;20.40;99.90;;;;;;4997503;28;20207;-66
2023/07/29 05:29:03;;;;;;;2.60;0.95;;;20.40;99.90;;;;;;4997631;28;20264;-66
2023/07/29 05:31:29;;;;;;;1.25;0.93;;;20.40;99.90;;;;;;4997608;28;20199;-66
2023/07/29 05:33:55;;;;;;;1.30;1.20;;;20.50;99.90;;;;;;4998167;28;20167;-67
2023/07/29 05:36:23;;;;;;;1.88;1.00;;;20.50;99.90;;;;;;4996390;28;20199;-66
2023/07/29 05:38:48;;;;;;;1.10;1.00;;;20.50;99.90;;;;;;4996925;28;20171;-66
2023/07/29 05:41:14;;;;;;;2.25;1.38;;;20.50;99.90;;;;;;4997230;28;20203;-66
2023/07/29 05:43:45;;;;;;;2.38;2.17;;;20.60;99.90;;;;;;4996942;28;20241;-66
2023/07/29 05:46:13;;;;;;;17.60;15.40;;;20.60;99.90;;;;;;4997033;28;20242;-67
2023/07/29 05:48:38;;;;;;;7.47;4.65;;;20.70;99.90;;;;;;4997161;28;20282;-66
2023/07/29 05:51:05;;;;;;;4.07;3.30;;;20.70;99.90;;;;;;4997211;28;20235;-66
2023/07/29 05:53:31;;;;;;;2.60;2.40;;;20.70;99.90;;;;;;4996811;28;20267;-67
2023/07/29 05:55:56;;;;;;;2.58;1.80;;;20.70;99.90;;;;;;4997052;28;20187;-67
2023/07/29 05:58:22;;;;;;;3.47;1.60;;;20.80;99.90;;;;;;4996896;28;20187;-67
2023/07/29 06:00:50;;;;;;;2.00;1.45;;;20.80;99.90;;;;;;4996960;28;20182;-68
2023/07/29 06:03:18;;;;;;;2.80;1.45;;;20.80;99.90;;;;;;4996613;28;20207;-68
2023/07/29 06:05:46;;;;;;;13.68;10.13;;;20.80;99.90;;;;;;4996578;28;20175;-67
2023/07/29 06:08:11;;;;;;;4.57;3.20;;;20.90;99.90;;;;;;4996107;28;20195;-68
2023/07/29 06:10:39;;;;;;;2.70;2.20;;;20.90;99.90;;;;;;4996933;28;20183;-68
2023/07/29 06:13:05;;;;;;;2.15;1.92;;;20.90;99.90;;;;;;4996699;28;20199;-68
2023/07/29 06:15:34;;;;;;;2.00;1.80;;;20.90;99.90;;;;;;4995514;28;20172;-68
2023/07/29 06:18:02;;;;;;;2.47;1.80;;;21.00;99.90;;;;;;4996581;28;20287;-67
2023/07/29 06:20:28;;;;;;;2.00;1.38;;;21.00;99.90;;;;;;4996483;28;20183;-68
2023/07/29 06:22:54;;;;;;;2.22;1.60;;;21.00;99.90;;;;;;4996409;28;20286;-68
2023/07/29 06:25:19;;;;;;;1.95;1.75;;;21.00;99.90;;;;;;4996630;28;20206;-68
2023/07/29 06:27:45;;;;;;;2.85;1.95;;;21.10;99.90;;;;;;4996614;28;20261;-68
2023/07/29 06:30:11;;;;;;;2.15;1.63;;;21.10;99.90;;;;;;4998906;28;20270;-68
2023/07/29 06:32:41;;;;;;;5.40;3.30;;;21.10;99.90;;;;;;4996581;28;20163;-67
2023/07/29 06:35:07;;;;;;;2.92;2.30;;;21.20;99.90;;;;;;4996088;28;20179;-67
2023/07/29 06:37:34;;;;;;;3.22;2.10;;;21.20;99.90;;;;;;4996078;28;20175;-67
2023/07/29 06:40:00;;;;;;;2.22;2.00;;;21.20;99.90;;;;;;4995814;28;20187;-67
2023/07/29 06:42:30;;;;;;;2.72;1.77;;;21.30;99.90;;;;;;4995223;28;20183;-67
2023/07/29 06:44:56;;;;;;;1.65;1.30;;;21.30;99.90;;;;;;4976419;28;20225;-67
2023/07/29 06:47:23;;;;;;;2.15;1.52;;;21.40;99.90;;;;;;4976703;28;20210;-67
2023/07/29 06:49:49;;;;;;;1.38;1.20;;;21.40;99.90;;;;;;4976138;28;20210;-67
2023/07/29 06:52:15;;;;;;;1.67;1.25;;;21.40;99.90;;;;;;4976211;28;20172;-67
2023/07/29 06:54:40;;;;;;;1.63;1.27;;;21.40;99.90;;;;;;4976383;28;20258;-67
2023/07/29 06:57:06;;;;;;;1.30;1.20;;;21.50;99.90;;;;;;4976377;28;20183;-67
2023/07/29 06:59:34;;;;;;;6.97;6.22;;;21.50;99.90;;;;;;4994692;28;20218;-67
2023/07/29 07:02:00;;;;;;;10.25;8.95;;;21.60;99.90;;;;;;4995776;28;20175;-67
2023/07/29 07:04:28;;;;;;;5.88;5.07;;;21.60;99.90;;;;;;4995739;28;20178;-68
2023/07/29 07:06:56;;;;;;;3.40;3.10;;;21.60;99.90;;;;;;4995624;28;20211;-66
2023/07/29 07:09:21;;;;;;;2.65;2.45;;;21.70;99.90;;;;;;4995760;28;20171;-67
2023/07/29 07:11:47;;;;;;;3.65;2.20;;;21.70;99.90;;;;;;4995527;28;20177;-67
2023/07/29 07:14:15;;;;;;;5.18;1.63;;;21.80;99.90;;;;;;4995472;28;20225;-66
2023/07/29 07:16:40;;;;;;;3.05;1.80;;;21.80;99.90;;;;;;4994727;28;20203;-66
2023/07/29 07:19:08;;;;;;;1.77;1.67;;;21.80;99.90;;;;;;4995356;28;20190;-66
2023/07/29 07:21:36;;;;;;;1.85;1.60;;;21.90;99.90;;;;;;4995215;28;20207;-67
2023/07/29 07:24:02;;;;;;;1.73;1.63;;;21.90;99.90;;;;;;4995294;28;20323;-67
2023/07/29 07:26:28;;;;;;;2.42;1.67;;;21.90;99.90;;;;;;4994825;28;20301;-66
2023/07/29 07:28:56;;;;;;;1.60;1.40;;;21.90;99.90;;;;;;4995313;28;20181;-67
2023/07/29 07:31:24;;;;;;;1.90;1.50;;;22.00;99.90;;;;;;4994747;28;20285;-67
2023/07/29 07:33:50;;;;;;;2.22;1.85;;;22.00;99.90;;;;;;4995255;28;20171;-67
2023/07/29 07:36:15;;;;;;;3.08;1.92;;;22.00;99.90;;;;;;4995625;28;20171;-67
2023/07/29 07:38:41;;;;;;;2.00;1.73;;;22.00;99.90;;;;;;4994477;28;20171;-67
2023/07/29 07:41:07;;;;;;;3.85;3.30;;;22.10;99.90;;;;;;4975714;28;20258;-67
2023/07/29 07:43:37;;;;;;;3.45;2.85;;;22.10;99.90;;;;;;4975510;28;20180;-67
2023/07/29 07:46:08;;;;;;;2.20;2.00;;;22.20;99.90;;;;;;4978869;28;20226;-67
2023/07/29 07:48:34;;;;;;;1.85;1.65;;;22.20;99.90;;;;;;4989418;28;20218;-66
2023/07/29 07:50:59;;;;;;;1.85;1.70;;;22.30;99.90;;;;;;4991900;28;20164;-66
2023/07/29 07:53:30;;;;;;;1.77;1.63;;;22.40;99.90;;;;;;4991673;28;20200;-67
2023/07/29 07:56:00;;;;;;;1.92;1.63;;;22.40;99.90;;;;;;4991693;28;20282;-66
2023/07/29 07:58:26;;;;;;;1.50;1.40;;;22.50;99.90;;;;;;4991495;28;20235;-66
2023/07/29 08:00:52;;;;;;;1.52;1.42;;;22.60;99.90;;;;;;4991681;28;20188;-66
2023/07/29 08:03:17;;;;;;;1.60;1.50;;;22.60;99.90;;;;;;4994946;28;20210;-66
2023/07/29 08:05:43;;;;;;;1.70;1.60;;;22.70;99.90;;;;;;5013202;28;20206;-66
2023/07/29 08:08:09;;;;;;;1.60;1.42;;;22.80;99.90;;;;;;4994672;28;20191;-66
2023/07/29 08:10:34;;;;;;;2.20;1.50;;;22.90;99.90;;;;;;4994553;28;20191;-66
2023/07/29 08:13:02;;;;;;;1.50;1.40;;;23.00;99.90;;;;;;4994358;28;20191;-65
2023/07/29 08:15:28;;;;;;;1.80;1.35;;;23.00;99.90;;;;;;4994423;28;20171;-66
2023/07/29 08:17:54;;;;;;;2.35;1.40;;;23.00;99.90;;;;;;4994843;28;20179;-66
2023/07/29 08:20:22;;;;;;;1.95;1.50;;;23.00;99.90;;;;;;4994840;28;20179;-65
2023/07/29 08:22:47;;;;;;;1.98;1.30;;;23.00;99.90;;;;;;4993840;28;20176;-66
2023/07/29 08:25:15;;;;;;;1.80;1.50;;;23.00;99.90;;;;;;4994578;28;20199;-65
2023/07/29 08:27:41;;;;;;;1.60;1.50;;;23.00;99.90;;;;;;4994708;28;20230;-65
2023/07/29 08:30:09;;;;;;;1.50;1.40;;;23.00;99.90;;;;;;4994411;28;20203;-66
2023/07/29 08:32:35;;;;;;;1.70;1.48;;;23.10;99.90;;;;;;4994393;28;20212;-65
2023/07/29 08:35:00;;;;;;;1.38;1.27;;;23.10;99.90;;;;;;4994286;28;20215;-66
2023/07/29 08:37:27;;;;;;;5.53;1.40;;;23.10;99.90;;;;;;4994215;28;20187;-66
2023/07/29 08:39:53;;;;;;;1.50;1.40;;;23.10;99.90;;;;;;4996807;28;20207;-65
2023/07/29 08:42:20;;;;;;;2.47;1.27;;;23.10;99.90;;;;;;4998457;28;20176;-65
2023/07/29 08:44:49;;;;;;;1.10;1.00;;;23.10;99.90;;;;;;4998329;28;20242;-66
2023/07/29 08:47:18;;;;;;;2.17;1.98;;;23.10;99.90;;;;;;4998174;28;20490;-67
2023/07/29 08:49:46;;;;;;;2.90;1.75;;;23.10;99.90;;;;;;4997898;28;20193;-67
2023/07/29 08:52:12;;;;;;;2.65;1.50;;;23.00;99.90;;;;;;4998065;28;20202;-66
2023/07/29 08:54:40;;;;;;;1.90;1.25;;;23.00;99.90;;;;;;4997951;28;20203;-66
2023/07/29 08:57:06;;;;;;;1.85;1.23;;;23.00;99.90;;;;;;4995620;28;20235;-64
2023/07/29 08:59:37;;;;;;;1.48;1.15;;;23.00;99.90;;;;;;4997978;28;20190;-63
2023/07/29 09:02:06;;;;;;;1.48;1.13;;;22.90;99.90;;;;;;4997884;28;20171;-65
2023/07/29 09:04:32;;;;;;;1.30;1.20;;;22.80;99.90;;;;;;4997596;28;20172;-64
2023/07/29 09:07:01;;;;;;;2.05;1.17;;;22.80;99.90;;;;;;4997740;28;20206;-64
2023/07/29 09:09:26;;;;;;;1.50;1.20;;;22.70;99.90;;;;;;4997906;28;20167;-64
2023/07/29 09:11:53;;;;;;;1.60;1.20;;;22.70;99.90;;;;;;4997229;28;20206;-64
2023/07/29 09:14:23;;;;;;;1.27;1.17;;;22.60;99.90;;;;;;4997532;28;20182;-64
2023/07/29 09:16:51;;;;;;;1.17;1.08;;;22.60;99.90;;;;;;4997703;28;20203;-64
2023/07/29 09:19:17;;;;;;;1.33;1.20;;;22.60;99.90;;;;;;4997433;28;20179;-65
2023/07/29 09:21:45;;;;;;;1.38;1.17;;;22.50;99.90;;;;;;4997479;28;20306;-64
2023/07/29 09:24:15;;;;;;;1.38;1.23;;;22.50;99.90;;;;;;4997470;28;20209;-64
2023/07/29 09:26:53;;;;;;;1.67;1.25;;;22.50;99.90;;;;;;4997243;28;20269;-64
2023/07/29 09:29:22;;;;;;;1.35;1.17;;;22.50;99.90;;;;;;4978832;28;20160;-65
2023/07/29 09:31:48;;;;;;;1.88;1.35;;;22.50;99.90;;;;;;4996826;28;20183;-65
2023/07/29 09:34:17;;;;;;;1.88;1.38;;;22.50;99.90;;;;;;4997231;28;20175;-65
2023/07/29 09:36:45;;;;;;;11.02;6.43;;;22.50;99.90;;;;;;4997255;28;20179;-64
2023/07/29 09:39:14;;;;;;;7.05;4.70;;;22.50;99.90;;;;;;4997193;28;20194;-64
2023/07/29 09:41:39;;;;;;;4.95;3.00;;;22.60;99.90;;;;;;4997003;28;20179;-64
2023/07/29 09:44:05;;;;;;;2.72;2.00;;;22.60;99.90;;;;;;4993997;28;20191;-64
2023/07/29 09:46:36;;;;;;;2.35;1.90;;;22.60;99.90;;;;;;4994018;28;20212;-64
2023/07/29 09:49:06;;;;;;;1.60;1.48;;;22.60;99.90;;;;;;4993637;28;20211;-64
2023/07/29 09:51:31;;;;;;;1.65;1.33;;;22.60;99.90;;;;;;4993767;28;20187;-65
2023/07/29 09:53:58;;;;;;;2.13;1.45;;;22.70;99.90;;;;;;4977489;28;20196;-64
2023/07/29 09:56:27;;;;;;;1.70;1.27;;;22.70;99.90;;;;;;4993858;28;20239;-64
2023/07/29 09:58:55;;;;;;;1.63;1.20;;;22.70;99.90;;;;;;4993546;28;20204;-65
2023/07/29 10:01:21;;;;;;;1.20;1.10;;;22.80;99.90;;;;;;4996592;28;20175;-65
2023/07/29 10:03:48;;;;;;;1.70;1.17;;;22.80;99.90;;;;;;4996399;28;20222;-64
2023/07/29 10:06:15;;;;;;;1.60;1.20;;;22.80;99.90;;;;;;4996807;28;20214;-65
2023/07/29 10:08:42;;;;;;;1.30;1.20;;;22.80;99.90;;;;;;4996813;28;20278;-65
2023/07/29 10:11:12;;;;;;;1.15;1.05;;;22.80;99.90;;;;;;4996617;28;20175;-65
2023/07/29 10:13:38;;;;;;;1.25;1.15;;;22.80;99.90;;;;;;4992884;28;20179;-64
2023/07/29 10:16:05;;;;;;;1.33;1.20;;;22.80;99.90;;;;;;4980658;28;20175;-65
2023/07/29 10:18:34;;;;;;;2.47;1.20;;;22.80;99.90;;;;;;4996408;28;20180;-65
2023/07/29 10:21:04;;;;;;;1.60;1.00;;;22.80;99.90;;;;;;4996323;28;20179;-64
2023/07/29 10:23:37;;;;;;;1.15;1.05;;;22.80;99.90;;;;;;4996316;28;20176;-65
2023/07/29 10:26:05;;;;;;;1.60;1.20;;;22.70;99.90;;;;;;4996202;28;20203;-65
2023/07/29 10:28:32;;;;;;;1.50;1.30;;;22.70;99.90;;;;;;4995880;28;20183;-65
2023/07/29 10:30:59;;;;;;;1.15;1.02;;;22.70;99.90;;;;;;4996231;28;20195;-64
2023/07/29 10:33:26;;;;;;;1.23;1.10;;;22.60;99.90;;;;;;4995685;28;20187;-64
2023/07/29 10:35:53;;;;;;;1.35;1.20;;;22.50;99.90;;;;;;4996097;28;20199;-64
2023/07/29 10:38:22;;;;;;;1.40;1.17;;;22.30;99.90;;;;;;4996183;28;20237;-64
2023/07/29 10:40:55;;;;;;;1.40;1.13;;;22.20;99.90;;;;;;4995777;28;20203;-64
2023/07/29 10:43:31;;;;;;;1.55;1.38;;;22.00;99.90;;;;;;4995890;28;20254;-64
2023/07/29 10:45:58;;;;;;;1.38;1.20;;;22.00;99.90;;;;;;4995806;28;20199;-64
2023/07/29 10:48:32;;;;;;;1.25;1.10;;;21.90;99.90;;;;;;4995866;28;20187;-64
2023/07/29 10:51:20;;;;;;;1.55;1.33;;;21.80;99.90;;;;;;4995164;28;20295;-65
2023/07/29 10:53:45;;;;;;;1.50;1.33;;;21.70;99.90;;;;;;4995742;28;20174;-65
2023/07/29 10:56:28;;;;;;;1.83;1.30;;;21.60;99.90;;;;;;4995817;28;20203;-65
2023/07/29 10:58:57;;;;;;;1.40;1.30;;;21.50;99.90;;;;;;4995957;28;20473;-66
2023/07/29 11:01:32;;;;;;;1.40;1.10;;;21.50;99.90;;;;;;4995105;28;20214;-64
2023/07/29 11:04:19;;;;;;;1.20;1.10;;;21.50;99.90;;;;;;5003558;28;20170;-65
2023/07/29 11:07:06;;;;;;;1.95;1.55;;;21.50;99.90;;;;;;5003416;28;20239;-65
2023/07/29 11:09:51;;;;;;;2.78;1.30;;;21.50;99.90;;;;;;4992477;28;20172;-65
2023/07/29 11:12:35;;;;;;;2.08;1.55;;;21.50;99.90;;;;;;4992220;28;20196;-65
2023/07/29 11:15:07;;;;;;;1.73;1.27;;;21.50;99.90;;;;;;4992592;28;20172;-65
2023/07/29 11:17:36;;;;;;;1.85;1.58;;;21.60;99.90;;;;;;4992609;28;20291;-65
2023/07/29 11:20:05;;;;;;;2.10;1.40;;;21.60;99.90;;;;;;4992232;28;20187;-64
2023/07/29 11:22:31;;;;;;;1.48;1.27;;;21.70;99.90;;;;;;4995676;28;20207;-65
2023/07/29 11:24:56;;;;;;;1.73;1.60;;;21.90;99.90;;;;;;4995090;28;20203;-64
2023/07/29 11:27:22;;;;;;;2.28;1.40;;;21.90;99.90;;;;;;4994845;28;20218;-64
2023/07/29 11:29:49;;;;;;;1.95;1.48;;;22.00;99.90;;;;;;4994922;28;20167;-64
2023/07/29 11:32:17;;;;;;;1.50;1.40;;;22.00;99.90;;;;;;4994961;28;20175;-65
2023/07/29 11:34:43;;;;;;;2.17;1.55;;;22.10;99.90;;;;;;4995335;28;20179;-65
2023/07/29 11:37:11;;;;;;;1.40;1.30;;;22.10;99.90;;;;;;4995154;28;20176;-64
2023/07/29 11:39:45;;;;;;;1.95;1.30;;;22.20;99.90;;;;;;4995313;28;20180;-65
2023/07/29 11:42:14;;;;;;;1.95;1.40;;;22.20;99.90;;;;;;4994586;28;20205;-65
2023/07/29 11:44:41;;;;;;;1.83;1.60;;;22.30;99.90;;;;;;4995043;28;20195;-64
2023/07/29 11:47:11;;;;;;;1.50;1.40;;;22.30;99.90;;;;;;4995249;28;20202;-64
2023/07/29 11:49:39;;;;;;;2.00;1.70;;;22.40;99.90;;;;;;4994895;28;20214;-64
2023/07/29 11:52:10;;;;;;;3.25;2.00;;;22.40;99.90;;;;;;4994884;28;20278;-64
2023/07/29 11:54:39;;;;;;;1.70;1.50;;;22.40;99.90;;;;;;4995181;28;20195;-64
2023/07/29 11:57:12;;;;;;;1.65;1.55;;;22.40;99.90;;;;;;4995228;28;20176;-64
2023/07/29 11:59:39;;;;;;;1.70;1.40;;;22.50;99.90;;;;;;4994577;28;20217;-64
2023/07/29 12:02:10;;;;;;;1.75;1.65;;;22.50;99.90;;;;;;4995173;28;20175;-64
2023/07/29 12:04:37;;;;;;;1.67;1.52;;;22.60;99.90;;;;;;4995036;28;20206;-64
2023/07/29 12:07:03;;;;;;;1.90;1.50;;;22.70;99.90;;;;;;4995021;28;20206;-64
2023/07/29 12:09:31;;;;;;;1.45;1.35;;;22.90;99.90;;;;;;4994775;28;20199;-64
2023/07/29 12:12:00;;;;;;;1.52;1.40;;;23.10;99.90;;;;;;4994467;28;20187;-64
2023/07/29 12:14:29;;;;;;;1.40;1.30;;;23.20;99.90;;;;;;4996598;28;20191;-65
2023/07/29 12:16:55;;;;;;;1.60;1.50;;;23.40;99.90;;;;;;4998437;28;20179;-64
2023/07/29 12:19:23;;;;;;;2.35;1.65;;;23.70;99.90;;;;;;4998609;28;20229;-64
2023/07/29 12:21:49;;;;;;;1.35;1.25;;;24.00;99.90;;;;;;4998573;28;20181;-65
2023/07/29 12:24:17;;;;;;;1.80;1.52;;;24.40;99.90;;;;;;4998623;28;20233;-65
2023/07/29 12:26:43;;;;;;;2.22;1.55;;;24.70;99.90;;;;;;4998631;28;20195;-63
2023/07/29 12:29:19;;;;;;;1.38;1.27;;;25.00;99.90;;;;;;5017112;28;20221;-64
2023/07/29 12:31:46;;;;;;;2.05;1.67;;;25.40;99.90;;;;;;5016414;28;20453;-64
2023/07/29 12:34:21;;;;;;;2.00;1.60;;;25.70;99.90;;;;;;4998593;28;20167;-64
2023/07/29 12:36:50;;;;;;;2.58;1.50;;;25.90;99.90;;;;;;4998255;28;20205;-64
2023/07/29 12:39:26;;;;;;;1.60;1.23;;;26.10;99.90;;;;;;4999006;28;20172;-65
2023/07/29 12:42:00;;;;;;;1.88;1.60;;;26.20;99.90;;;;;;4998398;28;20198;-64
2023/07/29 12:44:30;;;;;;;1.80;1.55;;;26.40;99.90;;;;;;4998676;28;20234;-65
2023/07/29 12:46:59;;;;;;;1.90;1.42;;;26.60;99.90;;;;;;4998436;28;20229;-65
2023/07/29 12:49:24;;;;;;;2.10;1.52;;;26.80;99.90;;;;;;4985540;28;20203;-66